createdAt,value
2018-05-23T00:01:17.726Z,9.40
2018-05-23T00:03:45.945Z,10.17
2018-05-23T00:06:14.426Z,9.53
2018-05-23T00:08:41.903Z,11.07
2018-05-23T00:11:09.359Z,11.90
2018-05-23T00:13:36.885Z,12.73
2018-05-23T00:16:04.320Z,10.93
2018-05-23T00:18:31.788Z,11.07
2018-05-23T00:20:59.233Z,10.53
2018-05-23T00:23:27.488Z,11.37
2018-05-23T00:25:54.997Z,9.83
2018-05-23T00:28:22.461Z,8.80
2018-05-23T00:30:49.937Z,11.07
2018-05-23T00:33:17.412Z,8.87
2018-05-23T00:35:44.869Z,9.70
2018-05-23T00:38:12.339Z,8.33
2018-05-23T00:40:40.389Z,11.27
2018-05-23T00:43:07.850Z,8.83
2018-05-23T00:45:36.812Z,9.60
2018-05-23T00:48:04.294Z,9.13
2018-05-23T00:50:31.758Z,13.17
2018-05-23T00:52:59.230Z,11.23
2018-05-23T00:55:35.098Z,8.13
2018-05-23T00:58:03.360Z,8.43
2018-05-23T01:00:31.604Z,8.60
2018-05-23T01:02:59.094Z,9.37
2018-05-23T01:05:27.318Z,8.93
2018-05-23T01:07:54.805Z,8.60
2018-05-23T01:10:22.286Z,8.77
2018-05-23T01:12:49.732Z,8.00
2018-05-23T01:15:17.170Z,10.97
2018-05-23T01:17:44.668Z,8.73
2018-05-23T01:20:12.136Z,9.23
2018-05-23T01:22:39.589Z,10.33
2018-05-23T01:25:07.044Z,8.03
2018-05-23T01:27:35.256Z,8.33
2018-05-23T01:30:02.740Z,10.87
2018-05-23T01:32:30.427Z,11.30
2018-05-23T01:34:58.663Z,11.53
2018-05-23T01:37:26.106Z,10.03
2018-05-23T01:39:53.550Z,10.23
2018-05-23T01:42:21.023Z,12.50
2018-05-23T01:44:48.632Z,10.37
2018-05-23T01:47:16.197Z,9.47
2018-05-23T01:49:43.759Z,14.33
2018-05-23T01:52:11.294Z,10.13
2018-05-23T01:54:39.643Z,11.13
2018-05-23T01:57:07.158Z,14.43
2018-05-23T01:59:34.618Z,14.93
2018-05-23T02:02:02.148Z,11.30
2018-05-23T02:04:29.630Z,10.10
2018-05-23T02:06:57.111Z,12.40
2018-05-23T02:09:24.647Z,11.50
2018-05-23T02:11:52.205Z,14.13
2018-05-23T02:14:19.673Z,12.30
2018-05-23T02:16:47.123Z,12.20
2018-05-23T02:19:14.597Z,12.77
2018-05-23T02:21:42.131Z,12.10
2018-05-23T02:24:09.619Z,10.27
2018-05-23T02:26:37.075Z,10.10
2018-05-23T02:29:04.566Z,10.60
2018-05-23T02:31:32.064Z,9.37
2018-05-23T02:33:59.643Z,9.73
2018-05-23T02:36:27.112Z,11.40
2018-05-23T02:38:54.586Z,9.97
2018-05-23T02:41:22.051Z,9.90
2018-05-23T02:43:49.528Z,10.00
2018-05-23T02:46:19.538Z,9.97
2018-05-23T02:48:46.987Z,9.67
2018-05-23T02:51:14.469Z,9.20
2018-05-23T02:53:42.718Z,9.90
2018-05-23T02:56:10.233Z,12.37
2018-05-23T02:58:37.710Z,12.73
2018-05-23T03:01:05.185Z,9.70
2018-05-23T03:03:32.666Z,13.33
2018-05-23T03:06:00.123Z,10.23
2018-05-23T03:08:28.375Z,9.17
2018-05-23T03:10:55.847Z,9.43
2018-05-23T03:13:23.348Z,9.27
2018-05-23T03:15:50.817Z,9.70
2018-05-23T03:18:18.273Z,10.67
2018-05-23T03:20:45.729Z,9.53
2018-05-23T03:23:13.280Z,8.33
2018-05-23T03:25:40.740Z,9.73
2018-05-23T03:28:08.207Z,8.13
2018-05-23T03:30:35.676Z,9.30
2018-05-23T03:33:03.127Z,10.20
2018-05-23T03:35:30.666Z,12.73
2018-05-23T03:37:58.112Z,12.57
2018-05-23T03:40:25.562Z,10.53
2018-05-23T03:42:53.782Z,9.90
2018-05-23T03:45:21.238Z,9.87
2018-05-23T03:47:48.709Z,9.60
2018-05-23T03:50:16.227Z,10.47
2018-05-23T03:52:43.701Z,8.67
2018-05-23T03:55:11.182Z,10.13
2018-05-23T03:57:38.646Z,11.03
2018-05-23T04:00:18.020Z,11.80
2018-05-23T04:02:57.337Z,9.37
2018-05-23T04:05:37.489Z,12.43
2018-05-23T04:08:05.751Z,10.37
2018-05-23T04:10:33.356Z,10.57
2018-05-23T04:13:00.829Z,11.63
2018-05-23T04:15:28.327Z,12.30
2018-05-23T04:17:55.787Z,12.60
2018-05-23T04:20:23.295Z,10.80
2018-05-23T04:22:50.809Z,12.23
2018-05-23T04:25:18.289Z,11.60
2018-05-23T04:27:45.831Z,11.20
2018-05-23T04:30:14.082Z,9.93
2018-05-23T04:32:41.550Z,10.30
2018-05-23T04:35:08.991Z,13.20
2018-05-23T04:37:36.485Z,11.93
2018-05-23T04:40:04.787Z,12.00
2018-05-23T04:42:32.346Z,17.97
2018-05-23T04:44:59.796Z,12.73
2018-05-23T04:47:27.276Z,12.87
2018-05-23T04:49:54.758Z,14.97
2018-05-23T04:52:22.335Z,12.40
2018-05-23T04:54:49.813Z,12.93
2018-05-23T04:57:18.108Z,13.87
2018-05-23T04:59:45.572Z,12.53
2018-05-23T05:02:13.080Z,17.53
2018-05-23T05:04:40.582Z,14.40
2018-05-23T05:07:08.141Z,18.33
2018-05-23T05:09:35.592Z,16.83
2018-05-23T05:12:03.059Z,14.47
2018-05-23T05:14:30.548Z,13.83
2018-05-23T05:16:58.004Z,13.90
2018-05-23T05:19:25.610Z,20.33
2018-05-23T05:21:53.913Z,20.17
2018-05-23T05:24:21.400Z,22.67
2018-05-23T05:26:48.994Z,17.87
2018-05-23T05:29:17.252Z,20.23
2018-05-23T05:31:44.914Z,19.37
2018-05-23T05:34:12.428Z,19.10
2018-05-23T05:36:39.882Z,20.43
2018-05-23T05:39:07.389Z,20.13
2018-05-23T05:41:34.957Z,18.17
2018-05-23T05:44:03.192Z,22.03
2018-05-23T05:46:30.667Z,20.27
2018-05-23T05:48:58.181Z,22.83
2018-05-23T05:51:25.650Z,24.37
2018-05-23T05:53:53.099Z,21.37
2018-05-23T05:56:20.620Z,22.70
2018-05-23T05:58:48.884Z,24.67
2018-05-23T06:01:16.350Z,25.57
2018-05-23T06:03:44.602Z,26.37
2018-05-23T06:06:12.105Z,32.70
2018-05-23T06:08:39.583Z,29.10
2018-05-23T06:11:07.097Z,31.40
2018-05-23T06:13:35.348Z,33.57
2018-05-23T06:16:02.807Z,33.00
2018-05-23T06:18:30.272Z,31.47
2018-05-23T06:20:57.757Z,33.57
2018-05-23T06:23:25.998Z,34.00
2018-05-23T06:25:54.286Z,30.20
2018-05-23T06:28:21.843Z,31.20
2018-05-23T06:30:49.299Z,34.00
2018-05-23T06:33:16.909Z,35.10
2018-05-23T06:35:44.368Z,33.97
2018-05-23T06:38:11.944Z,36.43
2018-05-23T06:40:39.440Z,34.67
2018-05-23T06:43:06.989Z,37.90
2018-05-23T06:45:34.455Z,37.97
2018-05-23T06:48:01.985Z,37.47
2018-05-23T06:50:29.490Z,34.27
2018-05-23T06:52:57.722Z,36.23
2018-05-23T06:55:25.217Z,41.43
2018-05-23T06:57:53.461Z,38.27
2018-05-23T07:00:20.950Z,36.80
2018-05-23T07:02:49.209Z,35.53
2018-05-23T07:05:16.715Z,40.17
2018-05-23T07:07:44.182Z,33.57
2018-05-23T07:10:11.664Z,34.40
2018-05-23T07:12:39.432Z,36.23
2018-05-23T07:15:06.953Z,36.73
2018-05-23T07:17:34.415Z,35.33
2018-05-23T07:20:01.917Z,29.80
2018-05-23T07:22:29.380Z,30.40
2018-05-23T07:24:56.878Z,30.30
2018-05-23T07:27:24.440Z,29.23
2018-05-23T07:29:51.921Z,27.80
2018-05-23T07:32:19.648Z,27.63
2018-05-23T07:34:47.138Z,30.40
2018-05-23T07:37:14.771Z,30.37
2018-05-23T07:39:42.428Z,32.10
2018-05-23T07:42:09.872Z,31.10
2018-05-23T07:44:38.157Z,35.87
2018-05-23T07:47:05.637Z,33.33
2018-05-23T07:49:33.094Z,30.97
2018-05-23T07:52:00.545Z,29.90
2018-05-23T07:54:28.100Z,32.90
2018-05-23T07:56:55.580Z,27.37
2018-05-23T07:59:23.060Z,27.77
2018-05-23T08:01:50.520Z,30.07
2018-05-23T08:04:18.008Z,27.57
2018-05-23T08:06:46.256Z,27.60
2018-05-23T08:09:13.742Z,24.53
2018-05-23T08:11:41.979Z,33.00
2018-05-23T08:14:09.595Z,26.10
2018-05-23T08:16:37.084Z,24.30
2018-05-23T08:19:04.574Z,25.33
2018-05-23T08:21:32.028Z,22.83
2018-05-23T08:24:00.932Z,23.20
2018-05-23T08:26:29.222Z,22.37
2018-05-23T08:28:56.706Z,22.30
2018-05-23T08:31:24.201Z,21.17
2018-05-23T08:33:51.670Z,26.50
2018-05-23T08:36:20.026Z,25.48
2018-05-23T08:38:47.444Z,23.38
2018-05-23T08:41:15.049Z,19.85
2018-05-23T08:43:42.649Z,22.35
2018-05-23T08:46:10.248Z,24.80
2018-05-23T08:48:37.789Z,28.02
2018-05-23T08:51:06.394Z,36.25
2018-05-23T08:53:34.086Z,33.20
2018-05-23T08:56:02.853Z,27.05
2018-05-23T08:58:30.357Z,30.58
2018-05-23T09:00:57.820Z,27.65
2018-05-23T09:03:25.360Z,27.10
2018-05-23T09:05:53.633Z,32.53
2018-05-23T09:08:21.974Z,28.12
2018-05-23T09:10:49.507Z,24.98
2018-05-23T09:13:17.016Z,24.92
2018-05-23T09:15:44.489Z,27.80
2018-05-23T09:18:12.748Z,24.15
2018-05-23T09:20:40.227Z,28.35
2018-05-23T09:23:08.476Z,23.65
2018-05-23T09:25:36.013Z,22.60
2018-05-23T09:28:03.467Z,22.33
2018-05-23T09:30:30.998Z,26.05
2018-05-23T09:32:58.486Z,24.65
2018-05-23T09:35:25.982Z,24.67
2018-05-23T09:37:54.191Z,23.80
2018-05-23T09:40:21.663Z,33.47
2018-05-23T09:42:49.130Z,25.85
2018-05-23T09:45:16.619Z,27.30
2018-05-23T09:47:44.095Z,26.58
2018-05-23T09:50:12.836Z,28.90
2018-05-23T09:52:40.359Z,28.38
2018-05-23T09:55:07.899Z,32.33
2018-05-23T09:57:35.360Z,27.45
2018-05-23T10:00:02.878Z,32.72
2018-05-23T10:02:30.395Z,27.65
2018-05-23T10:04:57.892Z,28.58
2018-05-23T10:07:25.415Z,29.55
2018-05-23T10:09:52.898Z,29.30
2018-05-23T10:12:21.167Z,29.58
2018-05-23T10:14:48.643Z,26.05
2018-05-23T10:17:16.257Z,25.02
2018-05-23T10:19:43.806Z,13.88
2018-05-23T10:22:11.362Z,11.52
2018-05-23T10:24:39.616Z,8.50
2018-05-23T10:27:07.880Z,11.30
2018-05-23T10:29:35.350Z,6.12
2018-05-23T10:32:03.662Z,8.32
2018-05-23T10:34:31.135Z,5.72
2018-05-23T10:36:58.624Z,6.30
2018-05-23T10:39:26.097Z,6.17
2018-05-23T10:41:53.556Z,5.63
2018-05-23T10:44:21.844Z,10.07
2018-05-23T10:46:50.113Z,6.53
2018-05-23T10:49:18.361Z,7.10
2018-05-23T10:51:45.934Z,6.90
2018-05-23T10:54:13.478Z,9.07
2018-05-23T10:56:40.959Z,8.77
2018-05-23T10:59:08.489Z,11.63
2018-05-23T11:01:36.109Z,9.93
2018-05-23T11:04:03.649Z,9.20
2018-05-23T11:06:31.235Z,11.57
2018-05-23T11:08:59.736Z,8.97
2018-05-23T11:11:27.250Z,7.67
2018-05-23T11:13:54.840Z,7.87
2018-05-23T11:16:22.319Z,8.63
2018-05-23T11:18:50.285Z,7.70
2018-05-23T11:21:18.845Z,10.73
2018-05-23T11:23:47.054Z,9.37
2018-05-23T11:26:14.523Z,11.10
2018-05-23T11:28:42.104Z,13.17
2018-05-23T11:31:10.393Z,11.80
2018-05-23T11:33:37.956Z,10.63
2018-05-23T11:36:05.723Z,9.80
2018-05-23T11:38:33.239Z,8.63
2018-05-23T11:41:00.719Z,9.07
2018-05-23T11:43:28.959Z,7.37
2018-05-23T11:45:56.571Z,8.67
2018-05-23T11:48:24.107Z,7.90
2018-05-23T11:50:52.363Z,10.40
2018-05-23T11:53:19.970Z,8.70
2018-05-23T11:55:47.452Z,9.47
2018-05-23T11:58:14.925Z,8.97
2018-05-23T12:00:42.451Z,6.80
2018-05-23T12:03:09.971Z,8.03
2018-05-23T12:05:38.229Z,7.67
2018-05-23T12:08:06.317Z,9.83
2018-05-23T12:10:34.681Z,8.93
2018-05-23T12:13:02.362Z,8.30
2018-05-23T12:15:30.614Z,11.93
2018-05-23T12:17:58.082Z,10.53
2018-05-23T12:20:25.592Z,7.77
2018-05-23T12:22:53.063Z,8.40
2018-05-23T12:25:20.592Z,9.47
2018-05-23T12:27:48.053Z,7.40
2018-05-23T12:30:15.546Z,9.87
2018-05-23T12:32:43.105Z,7.17
2018-05-23T12:35:10.967Z,11.17
2018-05-23T12:37:38.461Z,12.37
2018-05-23T12:40:06.700Z,9.93
2018-05-23T12:42:34.149Z,9.17
2018-05-23T12:45:01.655Z,9.40
2018-05-23T12:47:31.123Z,7.40
2018-05-23T12:49:58.594Z,10.68
2018-05-23T12:52:26.074Z,7.12
2018-05-23T12:54:54.336Z,11.02
2018-05-23T12:57:21.813Z,8.20
2018-05-23T12:59:50.039Z,7.37
2018-05-23T13:02:17.495Z,9.85
2018-05-23T13:04:44.996Z,7.93
2018-05-23T13:07:13.217Z,9.33
2018-05-23T13:09:40.704Z,8.02
2018-05-23T13:12:08.181Z,7.93
2018-05-23T13:14:36.445Z,10.88
2018-05-23T13:17:03.918Z,9.70
2018-05-23T13:19:32.254Z,9.95
2018-05-23T13:22:01.262Z,10.93
2018-05-23T13:24:28.808Z,7.10
2018-05-23T13:26:56.292Z,7.53
2018-05-23T13:29:23.913Z,8.40
2018-05-23T13:31:51.423Z,7.32
2018-05-23T13:34:18.937Z,8.82
2018-05-23T13:36:46.422Z,6.10
2018-05-23T13:39:13.884Z,6.30
2018-05-23T13:41:42.165Z,6.37
2018-05-23T13:44:09.740Z,11.45
2018-05-23T13:46:37.256Z,10.88
2018-05-23T13:49:04.763Z,6.25
2018-05-23T13:51:32.220Z,6.15
2018-05-23T13:53:59.914Z,7.40
2018-05-23T13:56:27.446Z,5.95
2018-05-23T13:58:54.931Z,5.47
2018-05-23T14:01:22.447Z,7.57
2018-05-23T14:03:50.740Z,8.18
2018-05-23T14:06:18.269Z,7.22
2018-05-23T14:08:46.528Z,5.22
2018-05-23T14:11:13.983Z,7.57
2018-05-23T14:13:41.471Z,8.50
2018-05-23T14:16:09.756Z,5.28
2018-05-23T14:18:37.295Z,9.35
2018-05-23T14:21:04.793Z,6.93
2018-05-23T14:23:32.296Z,8.85
2018-05-23T14:25:59.914Z,7.47
2018-05-23T14:28:27.668Z,6.32
2018-05-23T14:30:55.171Z,9.10
2018-05-23T14:33:22.671Z,5.80
2018-05-23T14:35:50.261Z,5.50
2018-05-23T14:38:17.635Z,8.50
2018-05-23T14:40:45.093Z,6.65
2018-05-23T14:43:12.634Z,6.65
2018-05-23T14:45:40.126Z,7.55
2018-05-23T14:48:07.677Z,6.40
2018-05-23T14:50:36.058Z,6.07
2018-05-23T14:53:03.641Z,6.30
2018-05-23T14:55:31.889Z,9.82
2018-05-23T14:57:59.384Z,10.80
2018-05-23T15:00:27.628Z,7.97
2018-05-23T15:02:55.111Z,7.60
2018-05-23T15:05:23.356Z,7.87
2018-05-23T15:07:50.827Z,7.80
2018-05-23T15:10:18.293Z,10.20
2018-05-23T15:12:45.757Z,6.68
2018-05-23T15:15:13.985Z,10.45
2018-05-23T15:17:41.469Z,9.57
2018-05-23T15:20:09.033Z,8.57
2018-05-23T15:22:36.413Z,9.07
2018-05-23T15:25:04.681Z,8.10
2018-05-23T15:27:32.986Z,6.00
2018-05-23T15:30:00.447Z,7.20
2018-05-23T15:32:27.939Z,12.75
2018-05-23T15:34:55.431Z,9.77
2018-05-23T15:37:23.665Z,6.37
2018-05-23T15:39:51.124Z,8.45
2018-05-23T15:42:18.622Z,13.05
2018-05-23T15:44:46.846Z,7.87
2018-05-23T15:47:14.300Z,10.35
2018-05-23T15:49:41.812Z,9.18
2018-05-23T15:52:10.069Z,8.23
2018-05-23T15:54:37.528Z,9.13
2018-05-23T15:57:05.743Z,8.73
2018-05-23T15:59:33.299Z,6.40
2018-05-23T16:02:00.924Z,7.15
2018-05-23T16:04:28.578Z,7.90
2018-05-23T16:06:56.127Z,8.40
2018-05-23T16:09:23.860Z,8.25
2018-05-23T16:11:51.464Z,6.97
2018-05-23T16:14:19.187Z,10.07
2018-05-23T16:16:46.936Z,9.52
2018-05-23T16:19:14.449Z,7.43
2018-05-23T16:21:41.988Z,6.80
2018-05-23T16:24:09.734Z,5.45
2018-05-23T16:26:38.033Z,9.80
2018-05-23T16:29:05.533Z,6.45
2018-05-23T16:31:33.053Z,7.00
2018-05-23T16:34:00.537Z,5.55
2018-05-23T16:36:29.834Z,9.13
2018-05-23T16:38:58.239Z,11.85
2018-05-23T16:41:25.965Z,10.27
2018-05-23T16:43:54.299Z,4.80
2018-05-23T16:46:21.845Z,5.78
2018-05-23T16:48:49.331Z,9.23
2018-05-23T16:51:16.776Z,7.57
2018-05-23T16:53:44.238Z,5.00
2018-05-23T16:56:11.810Z,8.82
2018-05-23T16:58:39.626Z,10.38
2018-05-23T17:01:07.221Z,8.80
2018-05-23T17:03:35.633Z,4.62
2018-05-23T17:06:03.147Z,7.85
2018-05-23T17:08:30.706Z,5.55
2018-05-23T17:10:58.208Z,8.63
2018-05-23T17:13:26.482Z,7.70
2018-05-23T17:15:53.971Z,4.37
2018-05-23T17:18:21.458Z,6.10
2018-05-23T17:20:48.916Z,9.20
2018-05-23T17:23:16.374Z,9.48
2018-05-23T17:25:43.891Z,6.87
2018-05-23T17:28:12.126Z,8.57
2018-05-23T17:30:39.572Z,12.88
2018-05-23T17:33:07.107Z,4.65
2018-05-23T17:35:34.565Z,10.05
2018-05-23T17:38:02.058Z,7.32
2018-05-23T17:40:29.500Z,7.00
2018-05-23T17:42:56.996Z,8.00
2018-05-23T17:45:24.480Z,9.38
2018-05-23T17:47:51.937Z,7.87
2018-05-23T17:50:19.430Z,5.70
2018-05-23T17:52:47.654Z,8.15
2018-05-23T17:55:15.900Z,8.15
2018-05-23T17:57:43.393Z,10.27
2018-05-23T18:00:12.511Z,6.32
2018-05-23T18:02:39.988Z,7.78
2018-05-23T18:05:07.600Z,6.05
2018-05-23T18:07:35.821Z,9.63
2018-05-23T18:10:03.296Z,5.78
2018-05-23T18:12:30.746Z,6.70
2018-05-23T18:14:58.221Z,6.75
2018-05-23T18:17:25.694Z,9.55
2018-05-23T18:19:53.171Z,6.72
2018-05-23T18:22:20.644Z,5.62
2018-05-23T18:24:48.957Z,6.68
2018-05-23T18:27:17.188Z,7.25
2018-05-23T18:29:44.664Z,5.28
2018-05-23T18:32:12.104Z,7.30
2018-05-23T18:34:39.568Z,5.60
2018-05-23T18:37:07.161Z,5.32
2018-05-23T18:39:34.633Z,7.65
2018-05-23T18:42:02.091Z,5.47
2018-05-23T18:44:29.555Z,7.45
2018-05-23T18:46:57.776Z,7.12
2018-05-23T18:49:25.418Z,5.50
2018-05-23T18:51:52.816Z,7.10
2018-05-23T18:54:20.322Z,5.30
2018-05-23T18:56:47.724Z,5.37
2018-05-23T18:59:15.179Z,7.82
2018-05-23T19:01:42.678Z,8.32
2018-05-23T19:04:10.918Z,9.40
2018-05-23T19:06:38.354Z,7.07
2018-05-23T19:09:06.612Z,8.00
2018-05-23T19:11:34.093Z,8.83
2018-05-23T19:14:01.541Z,8.00
2018-05-23T19:16:29.181Z,5.50
2018-05-23T19:18:56.694Z,7.63
2018-05-23T19:21:24.255Z,7.60
2018-05-23T19:23:51.710Z,9.53
2018-05-23T19:26:19.192Z,10.87
2018-05-23T19:28:47.456Z,7.87
2018-05-23T19:31:14.938Z,8.13
2018-05-23T19:33:43.173Z,6.60
2018-05-23T19:36:10.707Z,9.07
2018-05-23T19:38:38.219Z,5.83
2018-05-23T19:41:06.472Z,7.27
2018-05-23T19:43:34.032Z,8.13
2018-05-23T19:46:02.325Z,8.90
2018-05-23T19:48:29.823Z,9.50
2018-05-23T19:50:57.300Z,9.33
2018-05-23T19:53:24.751Z,10.80
2018-05-23T19:55:52.208Z,9.57
2018-05-23T19:58:19.667Z,11.27
2018-05-23T20:00:47.138Z,9.63
2018-05-23T20:03:14.663Z,10.80
2018-05-23T20:05:42.241Z,9.87
2018-05-23T20:08:09.701Z,8.53
2018-05-23T20:10:37.164Z,8.60
2018-05-23T20:13:04.615Z,11.03
2018-05-23T20:15:32.083Z,9.43
2018-05-23T20:17:59.572Z,7.70
2018-05-23T20:20:27.977Z,8.47
2018-05-23T20:22:55.446Z,11.37
2018-05-23T20:25:22.935Z,9.33
2018-05-23T20:27:50.432Z,11.10
2018-05-23T20:30:18.709Z,11.17
2018-05-23T20:32:46.183Z,19.17
2018-05-23T20:35:13.701Z,13.83
2018-05-23T20:37:41.135Z,12.87
2018-05-23T20:40:08.629Z,12.53
2018-05-23T20:42:36.910Z,11.43
2018-05-23T20:45:05.119Z,14.23
2018-05-23T20:47:36.172Z,13.00
2018-05-23T20:50:03.577Z,8.43
2018-05-23T20:52:31.913Z,9.97
2018-05-23T20:54:59.492Z,8.77
2018-05-23T20:57:26.982Z,8.17
2018-05-23T20:59:55.217Z,10.67
2018-05-23T21:02:22.707Z,14.23
2018-05-23T21:04:51.129Z,12.43
2018-05-23T21:07:18.634Z,11.20
2018-05-23T21:09:46.146Z,17.60
2018-05-23T21:12:13.625Z,13.60
2018-05-23T21:14:41.112Z,9.30
2018-05-23T21:17:09.370Z,9.57
2018-05-23T21:19:36.876Z,10.17
2018-05-23T21:22:04.345Z,12.73
2018-05-23T21:24:31.826Z,10.97
2018-05-23T21:26:59.341Z,9.67
2018-05-23T21:29:26.858Z,9.73
2018-05-23T21:31:54.450Z,10.63
2018-05-23T21:34:22.802Z,9.07
2018-05-23T21:36:50.955Z,9.57
2018-05-23T21:39:18.423Z,8.07
2018-05-23T21:41:45.895Z,7.97
2018-05-23T21:44:13.399Z,9.73
2018-05-23T21:46:40.869Z,10.80
2018-05-23T21:49:08.377Z,15.13
2018-05-23T21:51:36.640Z,13.17
2018-05-23T21:54:04.208Z,13.10
2018-05-23T21:56:31.843Z,11.97
2018-05-23T21:58:59.395Z,10.93
2018-05-23T22:01:26.934Z,11.10
2018-05-23T22:03:54.581Z,12.57
2018-05-23T22:06:22.209Z,12.03
2018-05-23T22:08:49.670Z,7.90
2018-05-23T22:11:18.091Z,10.03
2018-05-23T22:13:45.637Z,10.10
2018-05-23T22:16:13.208Z,11.73
2018-05-23T22:18:40.679Z,8.23
2018-05-23T22:21:08.160Z,11.07
2018-05-23T22:23:35.646Z,11.27
2018-05-23T22:26:04.094Z,11.60
2018-05-23T22:28:31.618Z,15.27
2018-05-23T22:30:59.138Z,9.40
2018-05-23T22:33:27.472Z,8.87
2018-05-23T22:35:55.118Z,10.53
2018-05-23T22:38:23.498Z,10.30
2018-05-23T22:40:51.041Z,9.50
2018-05-23T22:43:18.631Z,7.77
2018-05-23T22:45:46.243Z,8.53
2018-05-23T22:48:14.571Z,6.90
2018-05-23T22:50:42.086Z,6.93
2018-05-23T22:53:10.317Z,7.40
2018-05-23T22:55:37.811Z,8.73
2018-05-23T22:58:06.026Z,5.77
2018-05-23T23:00:33.502Z,8.40
2018-05-23T23:03:00.962Z,8.70
2018-05-23T23:05:28.420Z,5.43
2018-05-23T23:07:56.757Z,4.03
2018-05-23T23:10:24.210Z,4.83
2018-05-23T23:12:51.664Z,6.37
2018-05-23T23:15:19.108Z,6.60
2018-05-23T23:17:46.563Z,5.03
2018-05-23T23:20:14.021Z,6.77
2018-05-23T23:22:42.248Z,8.20
2018-05-23T23:25:09.720Z,5.77
2018-05-23T23:27:37.167Z,8.07
2018-05-23T23:30:04.642Z,8.50
2018-05-23T23:32:32.101Z,6.73
2018-05-23T23:34:59.572Z,5.07
2018-05-23T23:37:27.774Z,7.33
2018-05-23T23:39:55.282Z,5.90
2018-05-23T23:42:22.730Z,5.80
2018-05-23T23:44:50.186Z,5.23
2018-05-23T23:47:17.669Z,5.27
2018-05-23T23:49:46.771Z,6.70
2018-05-23T23:52:15.027Z,8.63
2018-05-23T23:54:42.486Z,7.77
2018-05-23T23:57:09.920Z,7.77
2018-05-23T23:59:37.445Z,6.30
